createdAt,value
2018-12-20T00:00:00.682Z,939.94
2018-12-20T00:01:08.799Z,939.90
2018-12-20T00:02:16.955Z,939.94
2018-12-20T00:03:24.838Z,939.92
2018-12-20T00:04:33.004Z,939.93
2018-12-20T00:05:41.074Z,939.89
2018-12-20T00:06:49.008Z,939.87
2018-12-20T00:07:57.181Z,939.89
2018-12-20T00:09:05.288Z,939.87
2018-12-20T00:10:13.217Z,939.88
2018-12-20T00:11:21.411Z,939.89
2018-12-20T00:12:29.380Z,939.94
2018-12-20T00:13:37.438Z,939.91
2018-12-20T00:14:45.516Z,939.95
2018-12-20T00:15:53.454Z,939.93
2018-12-20T00:17:01.514Z,939.98
2018-12-20T00:18:09.627Z,940.00
2018-12-20T00:19:17.716Z,940.03
2018-12-20T00:20:25.774Z,940.01
2018-12-20T00:21:33.720Z,940.00
2018-12-20T00:22:41.773Z,940.00
2018-12-20T00:23:49.992Z,939.99
2018-12-20T00:24:57.949Z,939.98
2018-12-20T00:26:05.983Z,940.02
2018-12-20T00:27:14.058Z,939.97
2018-12-20T00:28:22.041Z,940.00
2018-12-20T00:29:30.192Z,939.95
2018-12-20T00:30:38.360Z,940.00
2018-12-20T00:31:46.215Z,940.02
2018-12-20T00:32:54.262Z,940.04
2018-12-20T00:34:02.369Z,940.06
2018-12-20T00:35:10.452Z,940.07
2018-12-20T00:36:18.688Z,940.11
2018-12-20T00:37:26.538Z,940.07
2018-12-20T00:38:34.642Z,940.08
2018-12-20T00:39:42.664Z,940.09
2018-12-20T00:40:50.845Z,940.09
2018-12-20T00:41:58.825Z,940.08
2018-12-20T00:43:06.810Z,940.09
2018-12-20T00:44:14.889Z,940.05
2018-12-20T00:45:23.040Z,940.07
2018-12-20T00:46:30.930Z,940.13
2018-12-20T00:47:39.163Z,940.11
2018-12-20T00:48:47.030Z,940.15
2018-12-20T00:49:55.134Z,940.12
2018-12-20T00:51:03.164Z,940.14
2018-12-20T00:52:11.222Z,940.13
2018-12-20T00:53:19.341Z,940.10
2018-12-20T00:54:27.351Z,940.09
2018-12-20T00:55:35.569Z,940.12
2018-12-20T00:56:43.535Z,940.12
2018-12-20T00:57:51.556Z,940.13
2018-12-20T00:58:59.547Z,940.17
2018-12-20T01:00:07.578Z,940.20
2018-12-20T01:01:15.813Z,940.20
2018-12-20T01:02:23.743Z,940.20
2018-12-20T01:03:31.804Z,940.24
2018-12-20T01:04:39.830Z,940.24
2018-12-20T01:05:47.861Z,940.24
2018-12-20T01:06:55.979Z,940.24
2018-12-20T01:08:04.176Z,940.17
2018-12-20T01:09:12.004Z,940.19
2018-12-20T01:10:20.171Z,940.25
2018-12-20T01:11:28.120Z,940.18
2018-12-20T01:12:36.247Z,940.20
2018-12-20T01:13:44.407Z,940.22
2018-12-20T01:14:52.512Z,940.21
2018-12-20T01:16:00.414Z,940.23
2018-12-20T01:17:08.494Z,940.24
2018-12-20T01:18:16.530Z,940.26
2018-12-20T01:19:24.763Z,940.26
2018-12-20T01:20:32.587Z,940.26
2018-12-20T01:21:40.683Z,940.27
2018-12-20T01:22:48.685Z,940.28
2018-12-20T01:23:56.724Z,940.28
2018-12-20T01:25:04.888Z,940.20
2018-12-20T01:26:12.945Z,940.24
2018-12-20T01:27:21.020Z,940.24
2018-12-20T01:28:29.119Z,940.27
2018-12-20T01:29:37.000Z,940.35
2018-12-20T01:30:45.088Z,940.33
2018-12-20T01:31:53.118Z,940.36
2018-12-20T01:33:01.347Z,940.37
2018-12-20T01:34:09.354Z,940.43
2018-12-20T01:35:17.420Z,940.41
2018-12-20T01:36:25.420Z,940.40
2018-12-20T01:37:33.392Z,940.39
2018-12-20T01:38:41.496Z,940.37
2018-12-20T01:39:49.567Z,940.39
2018-12-20T01:40:57.583Z,940.41
2018-12-20T01:42:05.818Z,940.41
2018-12-20T01:43:13.657Z,940.47
2018-12-20T01:44:21.741Z,940.49
2018-12-20T01:45:29.855Z,940.52
2018-12-20T01:46:37.831Z,940.52
2018-12-20T01:47:46.105Z,940.48
2018-12-20T01:48:53.968Z,940.55
2018-12-20T01:50:02.030Z,940.51
2018-12-20T01:51:10.040Z,940.52
2018-12-20T01:52:18.117Z,940.54
2018-12-20T01:53:26.244Z,940.51
2018-12-20T01:54:34.235Z,940.51
2018-12-20T01:55:42.263Z,940.47
2018-12-20T01:56:50.331Z,940.46
2018-12-20T01:57:58.580Z,940.45
2018-12-20T01:59:06.579Z,940.48
2018-12-20T02:00:14.610Z,940.45
2018-12-20T02:01:22.579Z,940.53
2018-12-20T02:02:30.680Z,940.53
2018-12-20T02:03:38.735Z,940.60
2018-12-20T02:04:46.696Z,940.55
2018-12-20T02:05:54.736Z,940.59
2018-12-20T02:07:02.807Z,940.63
2018-12-20T02:08:10.890Z,940.61
2018-12-20T02:09:19.023Z,940.63
2018-12-20T02:10:26.979Z,940.65
2018-12-20T02:11:35.014Z,940.62
2018-12-20T02:12:43.075Z,940.61
2018-12-20T02:13:51.305Z,940.65
2018-12-20T02:15:01.693Z,940.67
2018-12-20T02:16:07.256Z,940.67
2018-12-20T02:17:15.275Z,940.67
2018-12-20T02:18:23.647Z,940.67
2018-12-20T02:19:31.414Z,940.67
2018-12-20T02:20:39.581Z,940.62
2018-12-20T02:21:47.758Z,940.64
2018-12-20T02:22:55.639Z,940.64
2018-12-20T02:24:03.853Z,940.63
2018-12-20T02:25:11.696Z,940.62
2018-12-20T02:26:19.836Z,940.59
2018-12-20T02:27:27.824Z,940.60
2018-12-20T02:28:35.877Z,940.58
2018-12-20T02:29:44.103Z,940.60
2018-12-20T02:30:52.174Z,940.59
2018-12-20T02:32:00.095Z,940.53
2018-12-20T02:33:08.279Z,940.60
2018-12-20T02:34:16.337Z,940.64
2018-12-20T02:35:24.189Z,940.64
2018-12-20T02:36:32.241Z,940.63
2018-12-20T02:37:40.396Z,940.64
2018-12-20T02:38:48.344Z,940.62
2018-12-20T02:39:56.574Z,940.63
2018-12-20T02:41:04.579Z,940.59
2018-12-20T02:42:12.602Z,940.60
2018-12-20T02:43:20.662Z,940.62
2018-12-20T02:44:28.635Z,940.66
2018-12-20T02:45:36.679Z,940.67
2018-12-20T02:46:44.757Z,940.62
2018-12-20T02:47:52.843Z,940.64
2018-12-20T02:49:01.066Z,940.69
2018-12-20T02:50:09.197Z,940.63
2018-12-20T02:51:17.116Z,940.60
2018-12-20T02:52:25.167Z,940.64
2018-12-20T02:53:33.163Z,940.67
2018-12-20T02:54:41.108Z,940.65
2018-12-20T02:55:49.400Z,940.64
2018-12-20T02:56:57.270Z,940.57
2018-12-20T02:58:05.463Z,940.56
2018-12-20T02:59:13.327Z,940.58
2018-12-20T03:00:21.479Z,940.54
2018-12-20T03:01:29.437Z,940.54
2018-12-20T03:02:37.716Z,940.51
2018-12-20T03:03:45.724Z,940.50
2018-12-20T03:04:53.803Z,940.59
2018-12-20T03:06:01.682Z,940.55
2018-12-20T03:07:09.979Z,940.54
2018-12-20T03:08:17.801Z,940.56
2018-12-20T03:09:25.917Z,940.54
2018-12-20T03:10:33.941Z,940.55
2018-12-20T03:11:41.945Z,940.54
2018-12-20T03:12:50.254Z,940.56
2018-12-20T03:13:58.101Z,940.49
2018-12-20T03:15:06.397Z,940.49
2018-12-20T03:16:14.176Z,940.46
2018-12-20T03:17:22.214Z,940.41
2018-12-20T03:18:30.397Z,940.46
2018-12-20T03:19:38.327Z,940.44
2018-12-20T03:20:46.755Z,940.48
2018-12-20T03:21:54.426Z,940.45
2018-12-20T03:23:02.527Z,940.40
2018-12-20T03:24:10.751Z,940.39
2018-12-20T03:25:18.588Z,940.38
2018-12-20T03:26:27.023Z,940.45
2018-12-20T03:27:34.747Z,940.38
2018-12-20T03:28:43.081Z,940.33
2018-12-20T03:29:50.930Z,940.39
2018-12-20T03:30:59.053Z,940.38
2018-12-20T03:32:07.023Z,940.38
2018-12-20T03:33:15.389Z,940.37
2018-12-20T03:34:23.077Z,940.38
2018-12-20T03:35:31.207Z,940.38
2018-12-20T03:36:39.241Z,940.38
2018-12-20T03:37:47.362Z,940.41
2018-12-20T03:38:55.323Z,940.45
2018-12-20T03:40:03.503Z,940.45
2018-12-20T03:41:11.549Z,940.48
2018-12-20T03:42:19.460Z,940.46
2018-12-20T03:43:27.545Z,940.48
2018-12-20T03:44:35.594Z,940.51
2018-12-20T03:45:43.638Z,940.48
2018-12-20T03:46:51.647Z,940.47
2018-12-20T03:47:59.805Z,940.39
2018-12-20T03:49:07.769Z,940.39
2018-12-20T03:50:15.887Z,940.45
2018-12-20T03:51:23.979Z,940.44
2018-12-20T03:52:32.163Z,940.39
2018-12-20T03:53:39.991Z,940.41
2018-12-20T03:54:48.027Z,940.46
2018-12-20T03:55:56.077Z,940.48
2018-12-20T03:57:04.133Z,940.48
2018-12-20T03:58:12.304Z,940.46
2018-12-20T03:59:20.263Z,940.42
2018-12-20T04:00:28.314Z,940.46
2018-12-20T04:01:36.419Z,940.46
2018-12-20T04:02:44.502Z,940.49
2018-12-20T04:03:52.670Z,940.49
2018-12-20T04:05:00.534Z,940.53
2018-12-20T04:06:08.740Z,940.53
2018-12-20T04:07:16.627Z,940.50
2018-12-20T04:08:24.789Z,940.55
2018-12-20T04:09:32.964Z,940.59
2018-12-20T04:10:40.790Z,940.60
2018-12-20T04:11:48.855Z,940.60
2018-12-20T04:12:56.907Z,940.60
2018-12-20T04:14:05.059Z,940.61
2018-12-20T04:15:13.431Z,940.59
2018-12-20T04:16:21.254Z,940.53
2018-12-20T04:17:29.134Z,940.57
2018-12-20T04:18:37.194Z,940.51
2018-12-20T04:19:45.207Z,940.55
2018-12-20T04:20:53.380Z,940.55
2018-12-20T04:22:01.333Z,940.53
2018-12-20T04:23:09.505Z,940.54
2018-12-20T04:24:17.467Z,940.56
2018-12-20T04:25:25.548Z,940.56
2018-12-20T04:26:33.679Z,940.57
2018-12-20T04:27:41.756Z,940.58
2018-12-20T04:28:49.689Z,940.61
2018-12-20T04:29:57.752Z,940.66
2018-12-20T04:31:05.958Z,940.65
2018-12-20T04:32:13.927Z,940.64
2018-12-20T04:33:21.902Z,940.65
2018-12-20T04:34:30.043Z,940.71
2018-12-20T04:35:38.026Z,940.70
2018-12-20T04:36:46.161Z,940.68
2018-12-20T04:37:54.221Z,940.68
2018-12-20T04:39:02.191Z,940.66
2018-12-20T04:40:10.264Z,940.62
2018-12-20T04:41:18.340Z,940.63
2018-12-20T04:42:26.438Z,940.67
2018-12-20T04:43:34.396Z,940.69
2018-12-20T04:44:42.779Z,940.72
2018-12-20T04:45:50.830Z,940.72
2018-12-20T04:46:59.639Z,940.71
2018-12-20T04:48:06.712Z,940.75
2018-12-20T04:49:14.680Z,940.74
2018-12-20T04:50:22.735Z,940.75
2018-12-20T04:51:31.000Z,940.76
2018-12-20T04:52:38.929Z,940.81
2018-12-20T04:53:46.898Z,940.87
2018-12-20T04:54:55.115Z,940.87
2018-12-20T04:56:03.005Z,940.84
2018-12-20T04:57:11.047Z,940.85
2018-12-20T04:58:19.349Z,940.86
2018-12-20T04:59:27.320Z,940.92
2018-12-20T05:00:35.241Z,940.93
2018-12-20T05:01:43.324Z,940.96
2018-12-20T05:02:51.335Z,940.90
2018-12-20T05:03:59.488Z,940.93
2018-12-20T05:05:07.499Z,940.97
2018-12-20T05:06:15.498Z,940.95
2018-12-20T05:07:23.549Z,940.98
2018-12-20T05:08:31.953Z,941.00
2018-12-20T05:09:39.751Z,940.99
2018-12-20T05:10:47.801Z,941.03
2018-12-20T05:11:55.914Z,940.98
2018-12-20T05:13:03.880Z,941.04
2018-12-20T05:14:12.074Z,941.01
2018-12-20T05:15:20.299Z,941.02
2018-12-20T05:16:28.276Z,941.06
2018-12-20T05:17:36.039Z,941.03
2018-12-20T05:18:44.125Z,941.06
2018-12-20T05:19:52.146Z,941.02
2018-12-20T05:21:00.525Z,941.06
2018-12-20T05:22:08.370Z,941.08
2018-12-20T05:23:16.538Z,941.06
2018-12-20T05:24:24.405Z,941.05
2018-12-20T05:25:32.454Z,941.13
2018-12-20T05:26:40.957Z,941.14
2018-12-20T05:27:48.649Z,941.21
2018-12-20T05:28:56.846Z,941.21
2018-12-20T05:30:04.983Z,941.22
2018-12-20T05:31:12.743Z,941.19
2018-12-20T05:32:20.907Z,941.22
2018-12-20T05:33:28.958Z,941.27
2018-12-20T05:34:37.725Z,941.30
2018-12-20T05:35:44.981Z,941.28
2018-12-20T05:36:53.298Z,941.31
2018-12-20T05:38:01.271Z,941.30
2018-12-20T05:39:09.333Z,941.31
2018-12-20T05:40:17.468Z,941.30
2018-12-20T05:41:25.232Z,941.34
2018-12-20T05:42:33.401Z,941.28
2018-12-20T05:43:41.346Z,941.31
2018-12-20T05:44:49.592Z,941.31
2018-12-20T05:46:04.380Z,941.33
2018-12-20T05:47:05.624Z,941.27
2018-12-20T05:48:13.708Z,941.28
2018-12-20T05:49:21.600Z,941.28
2018-12-20T05:50:29.637Z,941.26
2018-12-20T05:51:37.846Z,941.30
2018-12-20T05:52:45.861Z,941.31
2018-12-20T05:53:53.827Z,941.30
2018-12-20T05:55:01.966Z,941.32
2018-12-20T05:56:10.822Z,941.30
2018-12-20T05:57:18.172Z,941.32
2018-12-20T05:58:26.268Z,941.32
2018-12-20T05:59:34.287Z,941.38
2018-12-20T06:00:42.133Z,941.32
2018-12-20T06:01:50.333Z,941.28
2018-12-20T06:02:58.363Z,941.29
2018-12-20T06:04:06.402Z,941.28
2018-12-20T06:05:14.424Z,941.38
2018-12-20T06:06:22.460Z,941.34
2018-12-20T06:07:30.504Z,941.38
2018-12-20T06:08:38.616Z,941.40
2018-12-20T06:09:49.922Z,941.32
2018-12-20T06:10:59.176Z,941.37
2018-12-20T06:12:02.795Z,941.39
2018-12-20T06:13:10.968Z,941.42
2018-12-20T06:14:18.910Z,941.43
2018-12-20T06:15:27.028Z,941.44
2018-12-20T06:16:34.958Z,941.45
2018-12-20T06:17:43.001Z,941.45
2018-12-20T06:18:51.310Z,941.49
2018-12-20T06:19:59.411Z,941.48
2018-12-20T06:21:07.142Z,941.46
2018-12-20T06:22:15.207Z,941.48
2018-12-20T06:23:23.236Z,941.48
2018-12-20T06:24:31.305Z,941.50
2018-12-20T06:25:39.527Z,941.53
2018-12-20T06:26:47.519Z,941.54
2018-12-20T06:27:55.458Z,941.50
2018-12-20T06:29:03.531Z,941.53
2018-12-20T06:30:11.574Z,941.52
2018-12-20T06:31:20.087Z,941.55
2018-12-20T06:32:27.687Z,941.56
2018-12-20T06:33:35.728Z,941.55
2018-12-20T06:34:43.793Z,941.54
2018-12-20T06:35:51.854Z,941.49
2018-12-20T06:37:00.003Z,941.47
2018-12-20T06:38:07.960Z,941.51
2018-12-20T06:39:16.017Z,941.52
2018-12-20T06:40:24.076Z,941.51
2018-12-20T06:41:32.114Z,941.49
2018-12-20T06:42:40.286Z,941.53
2018-12-20T06:43:48.238Z,941.53
2018-12-20T06:44:56.290Z,941.53
2018-12-20T06:46:04.344Z,941.50
2018-12-20T06:47:12.528Z,941.51
2018-12-20T06:48:20.550Z,941.50
2018-12-20T06:49:28.501Z,941.50
2018-12-20T06:50:36.693Z,941.49
2018-12-20T06:51:44.629Z,941.52
2018-12-20T06:52:52.686Z,941.50
2018-12-20T06:54:00.826Z,941.55
2018-12-20T06:55:08.786Z,941.55
2018-12-20T06:56:16.850Z,941.62
2018-12-20T06:57:24.872Z,941.62
2018-12-20T06:58:32.946Z,941.66
2018-12-20T06:59:41.084Z,941.67
2018-12-20T07:00:49.057Z,941.67
2018-12-20T07:01:57.138Z,941.66
2018-12-20T07:03:05.172Z,941.67
2018-12-20T07:04:13.223Z,941.69
2018-12-20T07:05:21.369Z,941.72
2018-12-20T07:06:29.323Z,941.69
2018-12-20T07:07:37.402Z,941.63
2018-12-20T07:08:45.418Z,941.63
2018-12-20T07:09:53.515Z,941.58
2018-12-20T07:11:01.650Z,941.62
2018-12-20T07:12:09.619Z,941.67
2018-12-20T07:13:17.752Z,941.69
2018-12-20T07:14:25.709Z,941.72
2018-12-20T07:15:33.783Z,941.75
2018-12-20T07:16:41.923Z,941.73
2018-12-20T07:17:49.873Z,941.73
2018-12-20T07:18:57.980Z,941.76
2018-12-20T07:20:06.000Z,941.77
2018-12-20T07:21:14.053Z,941.80
2018-12-20T07:22:22.239Z,941.82
2018-12-20T07:23:30.198Z,941.82
2018-12-20T07:24:38.227Z,941.79
2018-12-20T07:25:46.280Z,941.82
2018-12-20T07:26:54.332Z,941.77
2018-12-20T07:28:02.473Z,941.77
2018-12-20T07:29:10.536Z,941.77
2018-12-20T07:30:18.481Z,941.76
2018-12-20T07:31:26.542Z,941.72
2018-12-20T07:32:34.687Z,941.76
2018-12-20T07:33:42.662Z,941.77
2018-12-20T07:34:50.710Z,941.85
2018-12-20T07:35:58.758Z,941.80
2018-12-20T07:37:06.820Z,941.82
2018-12-20T07:38:14.901Z,941.85
2018-12-20T07:39:22.929Z,941.82
2018-12-20T07:40:30.985Z,941.84
2018-12-20T07:41:39.020Z,941.81
2018-12-20T07:42:47.194Z,941.91
2018-12-20T07:43:55.120Z,941.88
2018-12-20T07:45:03.301Z,941.92
2018-12-20T07:46:11.259Z,941.90
2018-12-20T07:47:19.327Z,941.89
2018-12-20T07:48:31.988Z,941.93
2018-12-20T07:49:35.411Z,941.96
2018-12-20T07:50:43.487Z,941.91
2018-12-20T07:51:51.529Z,941.91
2018-12-20T07:52:59.600Z,941.91
2018-12-20T07:54:07.743Z,941.92
2018-12-20T07:55:15.849Z,941.91
2018-12-20T07:56:23.764Z,941.95
2018-12-20T07:57:31.822Z,941.93
2018-12-20T07:58:39.864Z,941.95
2018-12-20T07:59:48.012Z,941.92
2018-12-20T08:00:55.996Z,942.00
2018-12-20T08:02:04.045Z,942.01
2018-12-20T08:03:12.089Z,942.01
2018-12-20T08:04:20.149Z,942.04
2018-12-20T08:05:28.294Z,942.06
2018-12-20T08:06:36.260Z,942.03
2018-12-20T08:07:44.327Z,942.09
2018-12-20T08:08:52.369Z,942.13
2018-12-20T08:10:00.463Z,942.15
2018-12-20T08:11:08.573Z,942.18
2018-12-20T08:12:16.533Z,942.19
2018-12-20T08:13:24.598Z,942.24
2018-12-20T08:14:32.652Z,942.20
2018-12-20T08:15:40.799Z,942.17
2018-12-20T08:16:48.892Z,942.21
2018-12-20T08:17:56.806Z,942.20
2018-12-20T08:19:04.887Z,942.21
2018-12-20T08:20:12.927Z,942.22
2018-12-20T08:21:20.982Z,942.22
2018-12-20T08:22:29.130Z,942.21
2018-12-20T08:23:37.087Z,942.24
2018-12-20T08:24:45.111Z,942.24
2018-12-20T08:25:53.194Z,942.28
2018-12-20T08:27:01.258Z,942.29
2018-12-20T08:28:09.434Z,942.36
2018-12-20T08:29:17.369Z,942.39
2018-12-20T08:30:25.404Z,942.45
2018-12-20T08:31:33.574Z,942.44
2018-12-20T08:32:41.643Z,942.46
2018-12-20T08:33:49.596Z,942.47
2018-12-20T08:34:57.645Z,942.47
2018-12-20T08:36:05.676Z,942.45
2018-12-20T08:37:13.755Z,942.42
2018-12-20T08:38:21.892Z,942.45
2018-12-20T08:39:29.863Z,942.48
2018-12-20T08:40:37.926Z,942.54
2018-12-20T08:41:45.983Z,942.56
2018-12-20T08:42:54.052Z,942.57
2018-12-20T08:44:02.186Z,942.54
2018-12-20T08:45:10.141Z,942.60
2018-12-20T08:46:18.200Z,942.60
2018-12-20T08:47:26.361Z,942.62
2018-12-20T08:48:34.317Z,942.66
2018-12-20T08:49:42.471Z,942.67
2018-12-20T08:50:50.418Z,942.66
2018-12-20T08:51:58.484Z,942.61
2018-12-20T08:53:06.532Z,942.60
2018-12-20T08:54:14.603Z,942.59
2018-12-20T08:55:22.757Z,942.56
2018-12-20T08:56:30.704Z,942.56
2018-12-20T08:57:38.763Z,942.62
2018-12-20T08:58:46.833Z,942.63
2018-12-20T08:59:54.858Z,942.65
2018-12-20T09:01:03.019Z,942.71
2018-12-20T09:02:11.108Z,942.73
2018-12-20T09:03:19.135Z,942.70
2018-12-20T09:04:27.099Z,942.70
2018-12-20T09:05:35.143Z,942.72
2018-12-20T09:06:43.300Z,942.69
2018-12-20T09:07:51.260Z,942.68
2018-12-20T09:08:59.322Z,942.70
2018-12-20T09:10:07.383Z,942.75
2018-12-20T09:11:15.409Z,942.76
2018-12-20T09:12:23.575Z,942.78
2018-12-20T09:13:31.548Z,942.77
2018-12-20T09:14:39.600Z,942.78
2018-12-20T09:15:47.665Z,942.79
2018-12-20T09:17:02.594Z,942.82
2018-12-20T09:18:03.880Z,942.84
2018-12-20T09:19:11.820Z,942.81
2018-12-20T09:20:19.884Z,942.83
2018-12-20T09:21:27.938Z,942.80
2018-12-20T09:22:36.075Z,942.81
2018-12-20T09:23:44.047Z,942.85
2018-12-20T09:24:52.110Z,942.83
2018-12-20T09:26:00.166Z,942.81
2018-12-20T09:27:08.227Z,942.89
2018-12-20T09:28:16.389Z,942.90
2018-12-20T09:29:24.347Z,942.86
2018-12-20T09:30:32.396Z,942.92
2018-12-20T09:31:40.492Z,942.90
2018-12-20T09:32:48.607Z,942.95
2018-12-20T09:33:56.575Z,942.93
2018-12-20T09:35:04.669Z,942.88
2018-12-20T09:36:12.676Z,942.90
2018-12-20T09:37:20.733Z,942.95
2018-12-20T09:38:28.932Z,942.96
2018-12-20T09:39:36.851Z,943.06
2018-12-20T09:40:44.906Z,943.05
2018-12-20T09:41:52.991Z,943.15
2018-12-20T09:43:01.047Z,943.14
2018-12-20T09:44:09.174Z,943.11
2018-12-20T09:45:17.139Z,943.08
2018-12-20T09:46:25.185Z,943.09
2018-12-20T09:47:33.338Z,943.13
2018-12-20T09:48:41.295Z,943.12
2018-12-20T09:49:49.451Z,943.14
2018-12-20T09:50:57.418Z,943.14
2018-12-20T09:52:05.474Z,943.18
2018-12-20T09:53:13.533Z,943.22
2018-12-20T09:54:21.604Z,943.19
2018-12-20T09:55:29.735Z,943.19
2018-12-20T09:56:37.694Z,943.19
2018-12-20T09:57:45.757Z,943.18
2018-12-20T09:58:53.827Z,943.22
2018-12-20T10:00:01.877Z,943.23
2018-12-20T10:01:10.032Z,943.26
2018-12-20T10:02:17.988Z,943.22
2018-12-20T10:03:26.135Z,943.22
2018-12-20T10:04:34.107Z,943.24
2018-12-20T10:05:42.149Z,943.19
2018-12-20T10:06:50.322Z,943.30
2018-12-20T10:07:58.292Z,943.23
2018-12-20T10:09:06.489Z,943.20
2018-12-20T10:10:14.399Z,943.25
2018-12-20T10:11:22.446Z,943.31
2018-12-20T10:12:30.616Z,943.36
2018-12-20T10:13:38.561Z,943.38
2018-12-20T10:14:46.627Z,943.51
2018-12-20T10:15:54.688Z,943.44
2018-12-20T10:17:02.743Z,943.38
2018-12-20T10:18:10.903Z,943.38
2018-12-20T10:19:18.959Z,943.35
2018-12-20T10:20:26.914Z,943.36
2018-12-20T10:21:34.970Z,943.36
2018-12-20T10:22:43.135Z,943.29
2018-12-20T10:23:51.094Z,943.35
2018-12-20T10:24:59.142Z,943.32
2018-12-20T10:26:07.230Z,943.28
2018-12-20T10:27:15.245Z,943.28
2018-12-20T10:28:23.416Z,943.26
2018-12-20T10:29:31.382Z,943.27
2018-12-20T10:30:39.433Z,943.28
2018-12-20T10:31:47.499Z,943.23
2018-12-20T10:32:55.644Z,943.24
2018-12-20T10:34:03.614Z,943.16
2018-12-20T10:35:11.761Z,943.17
2018-12-20T10:36:19.739Z,943.18
2018-12-20T10:37:27.780Z,943.17
2018-12-20T10:38:35.888Z,943.09
2018-12-20T10:39:43.913Z,943.02
2018-12-20T10:40:51.960Z,943.03
2018-12-20T10:42:00.038Z,943.07
2018-12-20T10:43:08.077Z,943.05
2018-12-20T10:44:16.229Z,943.05
2018-12-20T10:45:24.207Z,943.01
2018-12-20T10:46:32.257Z,943.04
2018-12-20T10:47:40.354Z,942.99
2018-12-20T10:48:48.377Z,942.99
2018-12-20T10:49:56.524Z,942.91
2018-12-20T10:51:04.581Z,942.86
2018-12-20T10:52:12.549Z,942.99
2018-12-20T10:53:20.595Z,942.97
2018-12-20T10:54:28.663Z,942.90
2018-12-20T10:55:36.823Z,942.89
2018-12-20T10:56:44.780Z,942.84
2018-12-20T10:57:52.832Z,942.79
2018-12-20T10:59:00.883Z,942.79
2018-12-20T11:00:08.957Z,942.79
2018-12-20T11:01:17.103Z,942.78
2018-12-20T11:02:25.038Z,942.80
2018-12-20T11:03:33.127Z,942.88
2018-12-20T11:04:41.190Z,942.92
2018-12-20T11:05:49.239Z,942.86
2018-12-20T11:06:57.400Z,942.90
2018-12-20T11:08:05.344Z,942.97
2018-12-20T11:09:13.422Z,942.96
2018-12-20T11:10:21.475Z,942.93
2018-12-20T11:11:29.532Z,942.89
2018-12-20T11:12:37.680Z,942.90
2018-12-20T11:13:45.633Z,942.92
2018-12-20T11:14:53.698Z,943.02
2018-12-20T11:16:01.749Z,942.97
2018-12-20T11:17:09.823Z,942.98
2018-12-20T11:18:17.977Z,942.86
2018-12-20T11:19:25.925Z,942.74
2018-12-20T11:20:33.997Z,942.76
2018-12-20T11:21:42.060Z,942.74
2018-12-20T11:22:50.342Z,942.69
2018-12-20T11:23:58.180Z,942.77
2018-12-20T11:25:06.222Z,942.70
2018-12-20T11:26:14.282Z,942.74
2018-12-20T11:27:22.327Z,942.77
2018-12-20T11:28:30.403Z,942.77
2018-12-20T11:29:38.467Z,942.77
2018-12-20T11:30:46.518Z,942.76
2018-12-20T11:31:54.574Z,942.78
2018-12-20T11:33:02.727Z,942.75
2018-12-20T11:34:10.700Z,942.80
2018-12-20T11:35:18.760Z,942.74
2018-12-20T11:36:26.800Z,942.72
2018-12-20T11:37:34.950Z,942.69
2018-12-20T11:38:43.031Z,942.70
2018-12-20T11:39:59.183Z,942.62
2018-12-20T11:40:59.040Z,942.64
2018-12-20T11:42:07.102Z,942.66
2018-12-20T11:43:15.146Z,942.68
2018-12-20T11:44:23.324Z,942.60
2018-12-20T11:45:31.278Z,942.59
2018-12-20T11:46:39.336Z,942.61
2018-12-20T11:47:47.401Z,942.59
2018-12-20T11:48:55.419Z,942.58
2018-12-20T11:50:03.592Z,942.58
2018-12-20T11:51:11.556Z,942.50
2018-12-20T11:52:19.619Z,942.50
2018-12-20T11:53:27.694Z,942.44
2018-12-20T11:54:35.715Z,942.45
2018-12-20T11:55:43.880Z,942.46
2018-12-20T11:56:51.858Z,942.46
2018-12-20T11:57:59.920Z,942.44
2018-12-20T11:59:07.977Z,942.47
2018-12-20T12:00:16.030Z,942.43
2018-12-20T12:01:24.173Z,942.45
2018-12-20T12:02:32.140Z,942.43
2018-12-20T12:03:40.214Z,942.39
2018-12-20T12:04:48.265Z,942.41
2018-12-20T12:05:56.336Z,942.41
2018-12-20T12:07:04.468Z,942.41
2018-12-20T12:08:12.520Z,942.37
2018-12-20T12:09:20.488Z,942.36
2018-12-20T12:10:28.555Z,942.36
2018-12-20T12:11:36.625Z,942.33
2018-12-20T12:12:44.723Z,942.36
2018-12-20T12:13:52.742Z,942.35
2018-12-20T12:15:00.793Z,942.32
2018-12-20T12:16:08.835Z,942.34
2018-12-20T12:17:16.906Z,942.33
2018-12-20T12:18:25.000Z,942.34
2018-12-20T12:19:33.021Z,942.31
2018-12-20T12:20:41.078Z,942.32
2018-12-20T12:21:49.541Z,942.29
2018-12-20T12:22:57.277Z,942.25
2018-12-20T12:24:05.230Z,942.26
2018-12-20T12:25:13.308Z,942.25
2018-12-20T12:26:21.376Z,942.27
2018-12-20T12:27:29.436Z,942.22
2018-12-20T12:28:37.596Z,942.30
2018-12-20T12:29:45.508Z,942.27
2018-12-20T12:30:53.738Z,942.20
2018-12-20T12:32:01.668Z,942.28
2018-12-20T12:33:09.713Z,942.32
2018-12-20T12:34:17.895Z,942.31
2018-12-20T12:35:25.822Z,942.30
2018-12-20T12:36:33.902Z,942.31
2018-12-20T12:37:41.966Z,942.35
2018-12-20T12:38:50.120Z,942.36
2018-12-20T12:39:58.174Z,942.35
2018-12-20T12:41:06.126Z,942.34
2018-12-20T12:42:14.190Z,942.32
2018-12-20T12:43:22.245Z,942.32
2018-12-20T12:44:30.311Z,942.40
2018-12-20T12:45:38.458Z,942.39
2018-12-20T12:46:46.433Z,942.35
2018-12-20T12:48:02.837Z,942.37
2018-12-20T12:49:02.556Z,942.32
2018-12-20T12:50:10.701Z,942.34
2018-12-20T12:51:18.664Z,942.32
2018-12-20T12:52:26.725Z,942.29
2018-12-20T12:53:34.765Z,942.30
2018-12-20T12:54:42.946Z,942.27
2018-12-20T12:55:50.987Z,942.31
2018-12-20T12:56:58.953Z,942.25
2018-12-20T12:58:07.009Z,942.25
2018-12-20T12:59:15.057Z,942.22
2018-12-20T13:00:23.130Z,942.22
2018-12-20T13:01:31.286Z,942.18
2018-12-20T13:02:39.241Z,942.19
2018-12-20T13:03:47.320Z,942.22
2018-12-20T13:04:55.343Z,942.23
2018-12-20T13:06:03.422Z,942.20
2018-12-20T13:07:11.470Z,942.19
2018-12-20T13:08:19.536Z,942.19
2018-12-20T13:09:27.602Z,942.28
2018-12-20T13:10:35.749Z,942.31
2018-12-20T13:11:43.798Z,942.28
2018-12-20T13:12:51.783Z,942.32
2018-12-20T13:13:59.829Z,942.36
2018-12-20T13:15:07.889Z,942.33
2018-12-20T13:16:15.937Z,942.34
2018-12-20T13:17:24.102Z,942.35
2018-12-20T13:18:32.065Z,942.34
2018-12-20T13:19:40.119Z,942.34
2018-12-20T13:20:48.173Z,942.36
2018-12-20T13:21:56.240Z,942.36
2018-12-20T13:23:04.402Z,942.31
2018-12-20T13:24:12.353Z,942.35
2018-12-20T13:25:20.414Z,942.36
2018-12-20T13:26:28.567Z,942.38
2018-12-20T13:27:36.627Z,942.36
2018-12-20T13:28:44.585Z,942.41
2018-12-20T13:29:52.728Z,942.42
2018-12-20T13:31:01.187Z,942.39
2018-12-20T13:32:08.765Z,942.40
2018-12-20T13:33:16.921Z,942.46
2018-12-20T13:34:24.876Z,942.45
2018-12-20T13:35:34.565Z,942.49
2018-12-20T13:36:41.002Z,942.45
2018-12-20T13:37:49.136Z,942.47
2018-12-20T13:38:57.104Z,942.44
2018-12-20T13:40:05.156Z,942.44
2018-12-20T13:41:13.222Z,942.42
2018-12-20T13:42:21.379Z,942.46
2018-12-20T13:43:29.436Z,942.47
2018-12-20T13:44:37.398Z,942.43
2018-12-20T13:45:45.465Z,942.42
2018-12-20T13:46:53.517Z,942.43
2018-12-20T13:48:01.578Z,942.37
2018-12-20T13:49:09.731Z,942.38
2018-12-20T13:50:17.698Z,942.43
2018-12-20T13:51:25.729Z,942.39
2018-12-20T13:52:33.796Z,942.39
2018-12-20T13:53:41.859Z,942.39
2018-12-20T13:54:50.176Z,942.36
2018-12-20T13:55:57.972Z,942.33
2018-12-20T13:57:06.109Z,942.35
2018-12-20T13:58:14.098Z,942.31
2018-12-20T13:59:22.151Z,942.39
2018-12-20T14:00:30.308Z,942.43
2018-12-20T14:01:38.258Z,942.40
2018-12-20T14:02:46.306Z,942.40
2018-12-20T14:03:54.366Z,942.43
2018-12-20T14:05:02.424Z,942.43
2018-12-20T14:06:10.596Z,942.48
2018-12-20T14:07:18.539Z,942.49
2018-12-20T14:08:26.594Z,942.50